Time;durP1;ratioP1;P1;durP2;ratioP2;P2;SDS_P1;SDS_P2;PMS_P1;PMS_P2;Temp;Humidity;BMP_temperature;BMP_pressure;BME280_temperature;BME280_humidity;BME280_pressure;Samples;Min_cycle;Max_cycle;Signal;HPM_P1;HPM_P2
2023/08/10 00:00:32;;;;;;;;;;;;;;;23.02;57.80;97036.41;610907;232;64814;-72
2023/08/10 00:02:59;;;;;;;;;;;;;;;23.02;57.59;97037.20;610902;232;62468;-72
2023/08/10 00:05:29;;;;;;;;;;;;;;;23.02;57.69;97025.69;610896;232;62842;-72
2023/08/10 00:07:56;;;;;;;;;;;;;;;23.01;58.04;97018.73;610917;232;64817;-72
2023/08/10 00:10:24;;;;;;;;;;;;;;;23.01;57.06;97018.73;610874;232;65316;-72
2023/08/10 00:12:51;;;;;;;;;;;;;;;23.01;57.67;97018.73;610891;232;65705;-72
2023/08/10 00:15:19;;;;;;;;;;;;;;;23.00;57.12;97015.27;610601;232;65041;-72
2023/08/10 00:17:46;;;;;;;;;;;;;;;23.01;57.53;97018.73;610872;230;65016;-72
2023/08/10 00:20:14;;;;;;;;;;;;;;;23.01;57.20;97024.10;610858;232;65543;-72
2023/08/10 00:22:41;;;;;;;;;;;;;;;23.01;57.80;97018.73;610901;232;65257;-72
2023/08/10 00:25:09;;;;;;;;;;;;;;;23.00;57.47;97006.44;610879;232;62741;-72
2023/08/10 00:27:41;;;;;;;;;;;;;;;23.01;57.40;96994.62;610866;232;62988;-72
2023/08/10 00:30:07;;;;;;;;;;;;;;;23.00;57.12;96984.99;610550;232;62834;-72
2023/08/10 00:32:34;;;;;;;;;;;;;;;23.00;57.40;96990.35;610878;232;65075;-72
2023/08/10 00:35:02;;;;;;;;;;;;;;;23.00;57.38;96990.35;610888;232;65604;-72
2023/08/10 00:37:30;;;;;;;;;;;;;;;23.00;57.85;96984.99;610918;232;62684;-72
2023/08/10 00:39:58;;;;;;;;;;;;;;;22.99;58.21;96986.05;610834;232;65640;-72
2023/08/10 00:42:27;;;;;;;;;;;;;;;22.99;57.49;96988.73;610881;232;62767;-72
2023/08/10 00:44:54;;;;;;;;;;;;;;;22.99;57.15;96997.57;610915;232;65717;-72
2023/08/10 00:47:22;;;;;;;;;;;;;;;22.99;57.08;96999.45;610842;232;66134;-72
2023/08/10 00:49:49;;;;;;;;;;;;;;;22.99;58.24;96999.45;610886;232;65398;-72
2023/08/10 00:52:17;;;;;;;;;;;;;;;22.99;58.00;97004.81;610877;232;65083;-72
2023/08/10 00:54:45;;;;;;;;;;;;;;;22.98;56.90;96998.66;610862;232;65092;-72
2023/08/10 00:57:13;;;;;;;;;;;;;;;22.98;57.49;96997.87;610921;232;62625;-72
2023/08/10 00:59:41;;;;;;;;;;;;;;;22.98;57.63;96997.87;610829;232;65064;-72
2023/08/10 01:02:09;;;;;;;;;;;;;;;22.98;57.47;97000.55;610880;232;62791;-72
2023/08/10 01:04:37;;;;;;;;;;;;;;;22.97;57.21;96991.72;610871;232;65229;-72
2023/08/10 01:07:22;;;;;;;;;;;;;;;22.97;58.05;96986.36;610881;232;64943;-72
2023/08/10 01:10:09;;;;;;;;;;;;;;;22.97;58.18;96986.36;610866;232;64882;-72
2023/08/10 01:12:38;;;;;;;;;;;;;;;22.97;58.71;96980.17;610949;232;65615;-72
2023/08/10 01:15:16;;;;;;;;;;;;;;;22.98;58.00;96981.79;610886;232;65221;-72
2023/08/10 01:17:51;;;;;;;;;;;;;;;22.96;57.00;96973.23;610871;232;62497;-72
2023/08/10 01:20:20;;;;;;;;;;;;;;;22.96;57.59;96979.38;610872;232;65461;-72
2023/08/10 01:23:04;;;;;;;;;;;;;;;22.96;58.21;96968.66;610885;232;66124;-72
2023/08/10 01:25:32;;;;;;;;;;;;;;;22.96;57.83;96974.02;610542;232;65345;-72
2023/08/10 01:28:00;;;;;;;;;;;;;;;22.95;57.48;96956.33;610909;232;65437;-72
2023/08/10 01:30:28;;;;;;;;;;;;;;;22.94;57.37;96954.70;610799;232;63129;-72
2023/08/10 01:32:56;;;;;;;;;;;;;;;22.96;57.99;96959.83;610755;232;62765;-72
2023/08/10 01:35:24;;;;;;;;;;;;;;;22.95;57.03;96956.33;610844;232;65638;-72
2023/08/10 01:37:52;;;;;;;;;;;;;;;22.96;57.94;96949.11;610905;232;64949;-72
2023/08/10 01:40:19;;;;;;;;;;;;;;;22.95;57.81;96950.17;610888;232;64843;-72
2023/08/10 01:42:47;;;;;;;;;;;;;;;22.95;56.68;96947.49;610910;232;65417;-72
2023/08/10 01:45:14;;;;;;;;;;;;;;;22.95;57.61;96950.17;610910;232;65292;-72
2023/08/10 01:47:55;;;;;;;;;;;;;;;22.95;56.91;96947.49;610875;232;65186;-72
2023/08/10 01:50:24;;;;;;;;;;;;;;;22.95;56.55;96950.17;610883;232;65405;-72
2023/08/10 01:52:53;;;;;;;;;;;;;;;22.95;57.07;96956.33;610944;232;63594;-72
2023/08/10 01:55:21;;;;;;;;;;;;;;;22.95;56.99;96961.69;610947;232;62878;-72
2023/08/10 01:57:49;;;;;;;;;;;;;;;22.95;56.29;96961.69;610918;232;66036;-72
2023/08/10 02:00:17;;;;;;;;;;;;;;;22.95;57.44;96968.94;610836;232;64288;-72
2023/08/10 02:02:44;;;;;;;;;;;;;;;22.95;57.41;96961.69;610884;232;62698;-72
2023/08/10 02:05:15;;;;;;;;;;;;;;;22.95;56.50;96968.94;610881;232;63176;-72
2023/08/10 02:07:48;;;;;;;;;;;;;;;22.95;57.33;96976.97;610899;232;62910;-72
2023/08/10 02:10:12;;;;;;;;;;;;;;;22.94;56.57;96978.03;610728;232;65057;-72
2023/08/10 02:12:39;;;;;;;;;;;;;;;22.95;56.92;96982.33;610852;232;65494;-72
2023/08/10 02:15:07;;;;;;;;;;;;;;;22.94;56.88;96986.08;610908;232;62526;-72
2023/08/10 02:17:38;;;;;;;;;;;;;;;22.94;57.32;96991.44;610884;232;65070;-72
2023/08/10 02:20:12;;;;;;;;;;;;;;;22.94;56.37;96991.44;610907;232;63795;-72
2023/08/10 02:22:36;;;;;;;;;;;;;;;22.94;55.94;96983.39;610608;232;65213;-72
2023/08/10 02:25:03;;;;;;;;;;;;;;;22.93;56.34;96979.92;610843;232;62753;-72
2023/08/10 02:27:31;;;;;;;;;;;;;;;22.93;56.39;96987.96;610875;232;65678;-72
2023/08/10 02:29:58;;;;;;;;;;;;;;;22.93;56.77;96985.28;610907;232;63035;-72
2023/08/10 02:32:26;;;;;;;;;;;;;;;22.94;57.03;96992.23;610871;232;62803;-72
2023/08/10 02:34:53;;;;;;;;;;;;;;;22.93;56.79;96990.64;610945;232;63030;-72
2023/08/10 02:37:21;;;;;;;;;;;;;;;22.94;57.33;96996.80;610909;232;62928;-72
2023/08/10 02:39:48;;;;;;;;;;;;;;;22.93;56.86;96995.21;610841;232;64882;-72
2023/08/10 02:42:16;;;;;;;;;;;;;;;22.93;57.00;97000.57;610907;232;65473;-72
2023/08/10 02:44:49;;;;;;;;;;;;;;;22.92;57.64;96994.42;610894;232;65066;-72
2023/08/10 02:47:16;;;;;;;;;;;;;;;22.92;56.55;97005.14;610873;232;65091;-73
2023/08/10 02:49:43;;;;;;;;;;;;;;;22.93;56.88;97003.25;610925;232;63128;-72
2023/08/10 02:52:11;;;;;;;;;;;;;;;22.92;57.99;97004.34;610871;232;66174;-72
2023/08/10 02:54:39;;;;;;;;;;;;;;;22.92;56.98;97007.02;610882;232;62831;-72
2023/08/10 02:57:07;;;;;;;;;;;;;;;22.92;57.54;97015.06;610904;232;65555;-72
2023/08/10 02:59:35;;;;;;;;;;;;;;;22.90;56.71;97004.61;610889;232;62956;-72
2023/08/10 03:02:02;;;;;;;;;;;;;;;22.90;56.09;97003.81;610931;232;62885;-72
2023/08/10 03:04:30;;;;;;;;;;;;;;;22.90;56.64;97001.14;610904;232;65311;-72
2023/08/10 03:06:58;;;;;;;;;;;;;;;22.90;56.08;97003.81;610886;232;62791;-72
2023/08/10 03:09:25;;;;;;;;;;;;;;;22.92;57.36;96998.98;610877;232;62797;-72
2023/08/10 03:11:53;;;;;;;;;;;;;;;22.89;57.39;96997.66;610896;232;65448;-72
2023/08/10 03:14:20;;;;;;;;;;;;;;;22.91;57.53;97002.73;610898;232;63234;-72
2023/08/10 03:16:48;;;;;;;;;;;;;;;22.90;56.92;96998.46;610839;232;65095;-73
2023/08/10 03:19:16;;;;;;;;;;;;;;;22.89;57.93;96997.66;610849;232;65822;-73
2023/08/10 03:21:44;;;;;;;;;;;;;;;22.90;57.59;97001.14;610903;232;65706;-73
2023/08/10 03:24:12;;;;;;;;;;;;;;;22.89;55.98;96994.16;610885;232;65746;-73
2023/08/10 03:26:40;;;;;;;;;;;;;;;22.89;56.69;96988.80;610924;232;65748;-73
2023/08/10 03:29:08;;;;;;;;;;;;;;;22.89;56.37;96994.16;610891;232;65395;-73
2023/08/10 03:31:36;;;;;;;;;;;;;;;22.89;56.51;97002.20;610894;232;62460;-73
2023/08/10 03:34:05;;;;;;;;;;;;;;;22.89;56.86;97011.06;610842;232;63785;-72
2023/08/10 03:36:33;;;;;;;;;;;;;;;22.89;56.92;97000.34;610902;232;62965;-72
2023/08/10 03:39:00;;;;;;;;;;;;;;;22.89;55.63;97004.88;610862;232;64988;-72
2023/08/10 03:41:28;;;;;;;;;;;;;;;22.89;55.91;97007.56;610902;232;65492;-73
2023/08/10 03:43:56;;;;;;;;;;;;;;;22.88;56.54;97022.84;610881;232;62992;-73
2023/08/10 03:46:24;;;;;;;;;;;;;;;22.89;57.17;97019.10;610842;232;65046;-73
2023/08/10 03:48:52;;;;;;;;;;;;;;;22.89;57.51;97023.64;610868;232;63168;-73
2023/08/10 03:51:20;;;;;;;;;;;;;;;22.87;57.74;97015.91;610893;232;63990;-73
2023/08/10 03:53:47;;;;;;;;;;;;;;;22.88;57.86;97016.69;610941;232;64871;-73
2023/08/10 03:56:15;;;;;;;;;;;;;;;22.87;57.99;97013.22;610906;232;64945;-73
2023/08/10 03:58:42;;;;;;;;;;;;;;;22.87;57.25;97007.06;610909;232;64858;-73
2023/08/10 04:01:11;;;;;;;;;;;;;;;22.86;57.04;97008.92;610888;232;64908;-73
2023/08/10 04:03:38;;;;;;;;;;;;;;;22.87;57.86;96997.14;610841;232;62700;-73
2023/08/10 04:06:06;;;;;;;;;;;;;;;22.86;58.08;96995.52;610977;232;62810;-73
2023/08/10 04:08:33;;;;;;;;;;;;;;;22.86;56.77;96994.73;610908;232;62794;-73
2023/08/10 04:11:01;;;;;;;;;;;;;;;22.86;58.15;96995.52;610894;232;64807;-73
2023/08/10 04:13:30;;;;;;;;;;;;;;;22.87;58.20;96999.03;610873;232;65408;-73
2023/08/10 04:15:57;;;;;;;;;;;;;;;22.86;57.99;97005.45;610612;232;64784;-73
2023/08/10 04:18:25;;;;;;;;;;;;;;;22.85;57.72;97001.19;606106;234;65172;-73
2023/08/10 04:20:52;;;;;;;;;;;;;;;22.85;56.76;97007.34;606103;234;64871;-73
2023/08/10 04:23:20;;;;;;;;;;;;;;;22.85;57.17;97015.38;606029;234;62853;-73
2023/08/10 04:25:48;;;;;;;;;;;;;;;22.87;57.34;97023.14;606041;234;63202;-73
2023/08/10 04:28:15;;;;;;;;;;;;;;;22.85;56.79;97017.27;606012;232;65669;-73
2023/08/10 04:30:43;;;;;;;;;;;;;;;22.85;56.78;97019.94;606107;234;64672;-75
2023/08/10 04:33:10;;;;;;;;;;;;;;;22.85;57.10;97015.38;606101;234;63068;-75
2023/08/10 04:35:38;;;;;;;;;;;;;;;22.83;56.71;97018.36;606041;234;62991;-76
2023/08/10 04:38:05;;;;;;;;;;;;;;;22.85;56.63;97019.94;606055;234;65085;-76
2023/08/10 04:40:33;;;;;;;;;;;;;;;22.85;56.18;97028.77;606010;234;65244;-76
2023/08/10 04:43:00;;;;;;;;;;;;;;;22.85;56.45;97039.49;606038;234;63000;-76
2023/08/10 04:45:28;;;;;;;;;;;;;;;22.83;56.08;97050.51;606141;234;64883;-76
2023/08/10 04:47:56;;;;;;;;;;;;;;;22.85;56.12;97060.13;606094;234;64831;-76
2023/08/10 04:50:23;;;;;;;;;;;;;;;22.85;56.05;97068.17;606073;234;62961;-76
2023/08/10 04:52:51;;;;;;;;;;;;;;;22.85;57.25;97063.61;606047;234;64881;-75
2023/08/10 04:55:19;;;;;;;;;;;;;;;22.83;55.47;97069.27;606004;234;65857;-75
2023/08/10 04:57:46;;;;;;;;;;;;;;;22.83;55.94;97077.30;606131;234;65044;-76
2023/08/10 05:00:14;;;;;;;;;;;;;;;22.85;56.17;97086.93;605786;234;66074;-76
2023/08/10 05:02:42;;;;;;;;;;;;;;;22.85;57.59;97076.21;605977;234;65455;-75
2023/08/10 05:05:10;;;;;;;;;;;;;;;22.83;56.92;97074.63;606092;234;63170;-75
2023/08/10 05:07:38;;;;;;;;;;;;;;;22.83;56.29;97082.66;606069;234;65199;-76
2023/08/10 05:10:06;;;;;;;;;;;;;;;22.83;56.80;97082.66;606163;234;62655;-76
2023/08/10 05:12:35;;;;;;;;;;;;;;;22.84;56.61;97078.09;606118;234;62698;-76
2023/08/10 05:15:03;;;;;;;;;;;;;;;22.83;57.06;97088.02;606120;234;64908;-76
2023/08/10 05:17:31;;;;;;;;;;;;;;;22.83;56.45;97101.42;609276;232;65179;-76
2023/08/10 05:19:59;;;;;;;;;;;;;;;22.82;56.69;97097.13;610905;232;64766;-75
2023/08/10 05:22:26;;;;;;;;;;;;;;;22.83;57.31;97103.27;610960;232;64854;-76
2023/08/10 05:24:54;;;;;;;;;;;;;;;22.83;57.52;97092.55;610919;232;64935;-76
2023/08/10 05:27:21;;;;;;;;;;;;;;;22.83;56.97;97097.91;610940;232;64800;-76
2023/08/10 05:29:48;;;;;;;;;;;;;;;22.83;57.35;97092.55;610923;232;65169;-76
2023/08/10 05:32:16;;;;;;;;;;;;;;;22.82;56.81;97096.33;610911;232;64955;-75
2023/08/10 05:34:44;;;;;;;;;;;;;;;22.82;56.52;97093.65;610974;232;64447;-76
2023/08/10 05:37:11;;;;;;;;;;;;;;;22.81;56.93;97092.85;610968;232;64987;-76
2023/08/10 05:39:39;;;;;;;;;;;;;;;22.81;55.99;97094.73;610871;232;63650;-74
2023/08/10 05:42:07;;;;;;;;;;;;;;;22.82;56.04;97099.80;610913;232;62919;-73
2023/08/10 05:44:34;;;;;;;;;;;;;;;22.82;55.82;97096.33;610900;232;62763;-73
2023/08/10 05:47:02;;;;;;;;;;;;;;;22.81;56.16;97090.17;610901;232;64995;-74
2023/08/10 05:49:30;;;;;;;;;;;;;;;22.82;56.71;97097.13;610926;232;64752;-73
2023/08/10 05:51:57;;;;;;;;;;;;;;;22.82;57.16;97090.97;610916;232;64930;-73
2023/08/10 05:54:25;;;;;;;;;;;;;;;22.81;57.37;97095.53;610844;232;64981;-73
2023/08/10 05:56:52;;;;;;;;;;;;;;;22.82;56.17;97096.33;610899;232;65915;-76
2023/08/10 05:59:20;;;;;;;;;;;;;;;22.82;54.13;97094.44;610940;232;64987;-78
2023/08/10 06:01:48;;;;;;;;;;;;;;;22.81;57.26;97097.42;610904;232;64965;-76
2023/08/10 06:04:15;;;;;;;;;;;;;;;22.80;57.21;97096.59;610339;232;64840;-72
2023/08/10 06:06:42;;;;;;;;;;;;;;;22.82;56.48;97096.33;610777;232;62700;-69
2023/08/10 06:09:13;;;;;;;;;;;;;;;22.83;53.82;97101.42;610853;232;62985;-70
2023/08/10 06:11:40;;;;;;;;;;;;;;;22.84;55.00;97104.89;617199;229;64987;-69
2023/08/10 06:14:09;;;;;;;;;;;;;;;22.84;53.90;97102.21;617702;229;64922;-69
2023/08/10 06:16:37;;;;;;;;;;;;;;;22.84;55.90;97102.21;616203;229;66230;-75
2023/08/10 06:19:04;;;;;;;;;;;;;;;22.84;54.96;97107.58;612838;231;64819;-70
2023/08/10 06:21:33;;;;;;;;;;;;;;;22.85;59.31;97113.73;612882;231;63700;-72
2023/08/10 06:24:00;;;;;;;;;;;;;;;22.80;54.03;97122.59;612882;231;64913;-72
2023/08/10 06:26:28;;;;;;;;;;;;;;;22.81;53.93;97116.97;612899;231;64823;-73
2023/08/10 06:28:56;;;;;;;;;;;;;;;22.82;54.15;97123.91;612819;231;64876;-71
2023/08/10 06:31:23;;;;;;;;;;;;;;;22.84;54.15;97118.29;612831;231;65232;-69
2023/08/10 06:33:51;;;;;;;;;;;;;;;22.83;55.06;97117.50;612868;231;63754;-70
2023/08/10 06:36:18;;;;;;;;;;;;;;;22.84;55.71;97118.29;612479;231;62859;-69
2023/08/10 06:38:46;;;;;;;;;;;;;;;22.85;54.64;97121.77;611602;231;62754;-69
2023/08/10 06:41:13;;;;;;;;;;;;;;;22.85;54.96;97119.08;606033;234;63119;-85
2023/08/10 06:43:41;;;;;;;;;;;;;;;22.85;54.61;97111.05;606004;234;65010;-80
2023/08/10 06:46:08;;;;;;;;;;;;;;;22.86;54.70;97112.63;605966;234;65675;-70
2023/08/10 06:48:36;;;;;;;;;;;;;;;22.87;54.18;97114.25;606012;234;64656;-74
2023/08/10 06:51:03;;;;;;;;;;;;;;;22.87;54.28;97120.41;606063;234;64886;-75
2023/08/10 06:53:33;;;;;;;;;;;;;;;22.87;54.50;97120.41;605977;234;62789;-74
2023/08/10 06:56:00;;;;;;;;;;;;;;;22.88;54.44;97131.92;606044;234;63047;-72
2023/08/10 06:58:28;;;;;;;;;;;;;;;22.88;54.74;97132.71;606045;234;64789;-72
2023/08/10 07:00:56;;;;;;;;;;;;;;;22.89;54.44;97133.51;605972;234;62748;-73
2023/08/10 07:03:24;;;;;;;;;;;;;;;22.89;54.93;97136.19;606003;231;64828;-74
2023/08/10 07:05:51;;;;;;;;;;;;;;;22.89;54.31;97130.83;606078;234;64930;-74
2023/08/10 07:08:19;;;;;;;;;;;;;;;22.90;54.49;97135.13;605945;234;62762;-73
2023/08/10 07:10:46;;;;;;;;;;;;;;;22.90;54.52;97132.45;606006;234;65074;-73
2023/08/10 07:13:14;;;;;;;;;;;;;;;22.90;55.26;97138.60;606078;234;65113;-73
2023/08/10 07:15:42;;;;;;;;;;;;;;;22.90;54.30;97129.77;605952;234;64765;-73
2023/08/10 07:18:09;;;;;;;;;;;;;;;22.92;56.38;97138.33;608201;231;65202;-72
2023/08/10 07:20:37;;;;;;;;;;;;;;;22.91;57.08;97134.83;603907;229;64942;-76
2023/08/10 07:23:04;;;;;;;;;;;;;;;22.90;55.20;97135.92;602906;231;66919;-71
2023/08/10 07:25:32;;;;;;;;;;;;;;;22.90;54.22;97135.92;606257;231;64684;-73
2023/08/10 07:28:00;;;;;;;;;;;;;;;22.92;54.44;97149.05;605802;234;63726;-72
2023/08/10 07:30:28;;;;;;;;;;;;;;;22.92;54.36;97141.02;605871;234;62117;-72
2023/08/10 07:32:56;;;;;;;;;;;;;;;22.92;54.33;97149.05;605961;234;64797;-72
2023/08/10 07:35:23;;;;;;;;;;;;;;;22.93;54.56;97150.64;606587;231;64886;-72
2023/08/10 07:37:51;;;;;;;;;;;;;;;22.93;54.40;97153.32;612495;231;64713;-74
2023/08/10 07:40:18;;;;;;;;;;;;;;;22.93;54.46;97153.32;612496;231;64839;-70
2023/08/10 07:42:46;;;;;;;;;;;;;;;22.92;54.53;97155.20;612457;231;65016;-71
2023/08/10 07:45:13;;;;;;;;;;;;;;;22.93;54.49;97159.48;612461;231;62624;-73
2023/08/10 07:47:41;;;;;;;;;;;;;;;22.92;54.75;97159.77;609653;231;62707;-73
2023/08/10 07:50:09;;;;;;;;;;;;;;;22.92;54.45;97160.56;608240;231;64947;-74
2023/08/10 07:52:37;;;;;;;;;;;;;;;22.93;54.51;97164.04;610258;231;62490;-75
2023/08/10 07:55:05;;;;;;;;;;;;;;;22.94;54.40;97168.31;608478;231;65571;-72
2023/08/10 07:57:32;;;;;;;;;;;;;;;22.95;54.47;97164.56;610282;231;65125;-71
2023/08/10 08:00:05;;;;;;;;;;;;;;;22.95;54.53;97164.56;609834;231;46528;-74
2023/08/10 08:02:33;;;;;;;;;;;;;;;22.94;54.34;97165.63;609400;231;42744;-73
2023/08/10 08:05:01;;;;;;;;;;;;;;;22.97;54.36;97173.14;609933;231;62768;-72
2023/08/10 08:07:30;;;;;;;;;;;;;;;22.97;54.77;97167.78;610465;231;62540;-73
2023/08/10 08:09:58;;;;;;;;;;;;;;;22.99;58.75;97166.42;608691;231;62880;-72
2023/08/10 08:12:28;;;;;;;;;;;;;;;22.98;59.76;97158.67;608948;231;64945;-71
2023/08/10 08:14:55;;;;;;;;;;;;;;;22.99;59.63;97157.59;611924;231;64751;-72
2023/08/10 08:17:23;;;;;;;;;;;;;;;22.99;59.72;97163.73;614951;229;64513;-72
2023/08/10 08:19:55;;;;;;;;;;;;;;;22.99;60.40;97166.42;613521;229;64858;-76
2023/08/10 08:22:20;;;;;;;;;;;;;;;23.00;60.36;97161.88;613487;229;63426;-72
2023/08/10 08:24:51;;;;;;;;;;;;;;;23.00;59.67;97161.88;614327;229;62784;-71
2023/08/10 08:27:17;;;;;;;;;;;;;;;23.00;55.17;97168.04;613657;229;63642;-74
2023/08/10 08:29:44;;;;;;;;;;;;;;;22.99;56.00;97165.63;612722;229;64687;-71
2023/08/10 08:32:14;;;;;;;;;;;;;;;22.99;56.79;97166.42;610853;232;62912;-71
2023/08/10 08:34:44;;;;;;;;;;;;;;;22.99;59.03;97157.59;611177;229;62778;-72
2023/08/10 08:37:12;;;;;;;;;;;;;;;22.99;61.55;97162.94;614360;229;63066;-73
2023/08/10 08:39:39;;;;;;;;;;;;;;;22.97;60.42;97163.24;613541;229;62675;-73
2023/08/10 08:42:07;;;;;;;;;;;;;;;22.97;59.59;97159.73;613774;229;64856;-73
2023/08/10 08:44:40;;;;;;;;;;;;;;;22.97;59.29;97165.09;613283;229;52845;-73
2023/08/10 08:47:07;;;;;;;;;;;;;;;22.96;58.20;97160.83;610161;232;64846;-72
2023/08/10 08:49:34;;;;;;;;;;;;;;;22.96;57.81;97160.83;610145;232;64916;-73
2023/08/10 08:52:02;;;;;;;;;;;;;;;22.97;58.25;97165.09;611080;229;64908;-73
2023/08/10 08:54:31;;;;;;;;;;;;;;;22.96;58.20;97166.19;612681;229;63543;-72
2023/08/10 08:56:58;;;;;;;;;;;;;;;22.96;57.99;97169.66;613909;229;65126;-73
2023/08/10 08:59:26;;;;;;;;;;;;;;;22.96;58.15;97171.55;613692;229;62742;-72
2023/08/10 09:01:55;;;;;;;;;;;;;;;22.97;58.43;97162.41;613660;229;64833;-73
2023/08/10 09:04:22;;;;;;;;;;;;;;;22.96;60.05;97164.30;614715;229;64941;-75
2023/08/10 09:06:50;;;;;;;;;;;;;;;22.96;58.86;97168.87;614478;229;64734;-72
2023/08/10 09:09:18;;;;;;;;;;;;;;;22.95;58.02;97168.05;610748;232;62828;-74
2023/08/10 09:11:45;;;;;;;;;;;;;;;22.95;58.24;97170.72;610832;232;64896;-70
2023/08/10 09:14:13;;;;;;;;;;;;;;;22.96;58.28;97168.87;610823;232;62665;-73
2023/08/10 09:16:44;;;;;;;;;;;;;;;22.97;58.63;97165.09;614541;229;64908;-73
2023/08/10 09:19:13;;;;;;;;;;;;;;;22.96;58.81;97166.19;610684;232;62988;-73
2023/08/10 09:21:40;;;;;;;;;;;;;;;22.95;59.12;97167.25;610841;232;63108;-72
2023/08/10 09:24:10;;;;;;;;;;;;;;;22.95;57.67;97159.21;610712;232;65494;-74
2023/08/10 09:26:40;;;;;;;;;;;;;;;22.97;59.85;97175.81;610810;232;64978;-71
2023/08/10 09:29:08;;;;;;;;;;;;;;;22.96;60.73;97171.55;611904;229;65443;-70
2023/08/10 09:31:36;;;;;;;;;;;;;;;22.95;58.37;97169.93;613762;229;65189;-69
2023/08/10 09:34:04;;;;;;;;;;;;;;;22.94;57.37;97165.63;614621;229;62814;-69
2023/08/10 09:36:32;;;;;;;;;;;;;;;22.94;57.26;97168.31;614888;229;65565;-71
2023/08/10 09:38:59;;;;;;;;;;;;;;;22.94;57.19;97169.11;611846;229;64997;-70
2023/08/10 09:41:27;;;;;;;;;;;;;;;22.95;57.26;97165.36;613057;229;63689;-72
2023/08/10 09:43:54;;;;;;;;;;;;;;;22.95;56.88;97169.93;613522;229;65954;-70
2023/08/10 09:46:23;;;;;;;;;;;;;;;22.94;56.80;97165.63;611494;229;64968;-70
2023/08/10 09:48:50;;;;;;;;;;;;;;;22.94;56.87;97163.74;610656;232;65095;-69
2023/08/10 09:51:18;;;;;;;;;;;;;;;22.94;56.84;97162.95;611418;229;65680;-71
2023/08/10 09:53:46;;;;;;;;;;;;;;;22.94;56.68;97158.38;614188;229;65197;-70
2023/08/10 09:56:13;;;;;;;;;;;;;;;22.95;56.69;97156.53;610858;232;65066;-70
2023/08/10 09:58:42;;;;;;;;;;;;;;;22.95;56.66;97159.21;610642;232;65451;-70
2023/08/10 10:01:10;;;;;;;;;;;;;;;22.95;56.65;97161.89;610014;229;63759;-70
2023/08/10 10:03:37;;;;;;;;;;;;;;;22.95;56.18;97161.89;610425;230;62990;-69
2023/08/10 10:06:07;;;;;;;;;;;;;;;22.95;56.13;97160.00;593879;232;64949;-69
2023/08/10 10:08:36;;;;;;;;;;;;;;;22.96;58.70;97160.83;604837;232;64281;-69
2023/08/10 10:11:06;;;;;;;;;;;;;;;22.96;60.32;97166.98;599274;232;62562;-68
2023/08/10 10:13:33;;;;;;;;;;;;;;;22.95;58.98;97161.89;604524;232;63819;-69
2023/08/10 10:16:01;;;;;;;;;;;;;;;22.95;59.09;97169.93;604464;232;64706;-69
2023/08/10 10:18:29;;;;;;;;;;;;;;;22.95;59.61;97164.56;593149;234;64616;-69
2023/08/10 10:21:04;;;;;;;;;;;;;;;22.94;58.22;97158.38;595549;234;66768;-69
2023/08/10 10:23:30;;;;;;;;;;;;;;;22.95;58.11;97153.84;598405;234;64494;-69
2023/08/10 10:26:00;;;;;;;;;;;;;;;22.95;58.83;97165.36;601113;234;62925;-69
2023/08/10 10:28:29;;;;;;;;;;;;;;;22.95;59.29;97161.89;592862;234;62601;-69
2023/08/10 10:30:58;;;;;;;;;;;;;;;22.95;59.69;97168.05;593219;234;65934;-69
2023/08/10 10:33:26;;;;;;;;;;;;;;;22.94;58.40;97166.42;598042;234;62075;-69
2023/08/10 10:36:10;;;;;;;;;;;;;;;22.95;58.38;97162.68;605959;234;65307;-69
2023/08/10 10:38:38;;;;;;;;;;;;;;;22.95;58.16;97161.89;605977;234;63597;-68
2023/08/10 10:41:17;;;;;;;;;;;;;;;22.95;58.23;97161.89;605874;234;65022;-68
2023/08/10 10:43:48;;;;;;;;;;;;;;;22.96;57.82;97160.83;602173;234;65508;-68
2023/08/10 10:46:33;;;;;;;;;;;;;;;22.95;58.49;97149.28;605968;234;63109;-68
2023/08/10 10:49:13;;;;;;;;;;;;;;;22.96;58.41;97155.47;605919;234;45916;-69
2023/08/10 10:51:50;;;;;;;;;;;;;;;22.96;58.74;97155.47;582428;242;47171;-68
2023/08/10 11:07:01;;;;;;;;;;;;;;;22.97;57.17;97162.41;580491;244;36258;-68
2023/08/10 11:09:29;;;;;;;;;;;;;;;22.97;57.25;97157.06;580365;244;63120;-68
2023/08/10 11:12:02;;;;;;;;;;;;;;;22.96;57.43;97160.83;579586;244;63312;-67
2023/08/10 11:14:29;;;;;;;;;;;;;;;22.96;57.83;97163.51;579011;244;63109;-70
2023/08/10 11:17:00;;;;;;;;;;;;;;;22.96;58.73;97166.19;579944;242;65635;-69
2023/08/10 11:19:29;;;;;;;;;;;;;;;22.96;58.47;97164.30;580139;244;63117;-69
2023/08/10 11:21:57;;;;;;;;;;;;;;;22.96;57.94;97164.30;578804;244;65368;-69
2023/08/10 11:24:24;;;;;;;;;;;;;;;22.96;57.69;97164.30;579854;244;63183;-69
2023/08/10 11:26:52;;;;;;;;;;;;;;;22.96;57.86;97166.19;579801;244;62853;-69
2023/08/10 11:29:20;;;;;;;;;;;;;;;22.97;57.82;97173.14;579547;244;63030;-70
2023/08/10 11:31:48;;;;;;;;;;;;;;;22.97;60.39;97168.60;578932;244;63243;-69
2023/08/10 11:34:20;;;;;;;;;;;;;;;22.97;59.93;97171.28;580141;244;65233;-71
2023/08/10 11:36:48;;;;;;;;;;;;;;;22.97;58.73;97167.78;580062;244;65193;-68
2023/08/10 11:39:15;;;;;;;;;;;;;;;22.97;59.64;97162.41;579988;244;65450;-69
2023/08/10 11:41:45;;;;;;;;;;;;;;;22.96;58.78;97155.47;580082;244;65097;-69
2023/08/10 11:44:24;;;;;;;;;;;;;;;22.96;58.14;97166.19;579838;244;45016;-68
2023/08/10 11:46:52;;;;;;;;;;;;;;;22.96;58.77;97166.19;580767;243;65424;-68
2023/08/10 11:49:19;;;;;;;;;;;;;;;22.96;58.01;97160.83;580146;244;64870;-69
2023/08/10 11:51:47;;;;;;;;;;;;;;;22.97;58.25;97165.92;580020;244;65042;-68
2023/08/10 11:54:14;;;;;;;;;;;;;;;22.96;58.43;97160.83;580013;244;63030;-68
2023/08/10 11:56:45;;;;;;;;;;;;;;;22.96;57.99;97158.94;580069;244;65389;-71
2023/08/10 11:59:16;;;;;;;;;;;;;;;22.97;57.83;97157.06;580062;244;65228;-72
2023/08/10 12:01:54;;;;;;;;;;;;;;;22.96;57.79;97156.27;580121;243;63139;-72
2023/08/10 12:04:21;;;;;;;;;;;;;;;22.96;57.60;97152.79;580080;244;62955;-70
2023/08/10 12:06:49;;;;;;;;;;;;;;;22.96;57.44;97158.94;578318;244;62839;-71
2023/08/10 12:09:16;;;;;;;;;;;;;;;22.97;57.39;97159.73;578297;245;65289;-72
2023/08/10 12:11:47;;;;;;;;;;;;;;;22.97;57.54;97157.06;578337;245;65604;-73
2023/08/10 12:14:16;;;;;;;;;;;;;;;22.97;57.51;97160.56;578336;245;64935;-70
2023/08/10 12:16:44;;;;;;;;;;;;;;;22.98;57.79;97156.00;578321;245;64722;-70
2023/08/10 12:19:11;;;;;;;;;;;;;;;22.97;57.73;97154.38;578052;245;62938;-72
2023/08/10 12:21:39;;;;;;;;;;;;;;;22.97;57.66;97160.56;577733;245;64894;-71
2023/08/10 12:24:07;;;;;;;;;;;;;;;22.98;57.75;97154.11;577233;245;65466;-74
2023/08/10 12:26:35;;;;;;;;;;;;;;;22.98;57.71;97158.67;578256;245;63020;-72
2023/08/10 12:29:02;;;;;;;;;;;;;;;22.98;57.71;97150.63;577910;245;63776;-72
2023/08/10 12:31:29;;;;;;;;;;;;;;;22.98;57.70;97150.63;577648;243;62770;-74
2023/08/10 12:33:57;;;;;;;;;;;;;;;22.97;57.64;97151.70;577965;245;62704;-74
2023/08/10 12:36:25;;;;;;;;;;;;;;;22.98;57.70;97153.31;578261;245;64965;-74
2023/08/10 12:38:54;;;;;;;;;;;;;;;22.98;57.79;97156.00;578409;245;65483;-69
2023/08/10 12:41:22;;;;;;;;;;;;;;;22.99;57.72;97146.86;578327;245;65116;-69
2023/08/10 12:43:49;;;;;;;;;;;;;;;22.98;57.81;97142.59;578208;245;62779;-69
2023/08/10 12:46:19;;;;;;;;;;;;;;;22.98;57.83;97145.27;578303;245;65481;-69
2023/08/10 12:48:47;;;;;;;;;;;;;;;22.97;57.85;97141.80;578013;245;63140;-69
2023/08/10 12:51:14;;;;;;;;;;;;;;;22.98;57.95;97139.91;578003;243;64960;-69
2023/08/10 12:53:42;;;;;;;;;;;;;;;22.98;57.89;97147.95;578215;243;66404;-70
2023/08/10 12:56:09;;;;;;;;;;;;;;;22.98;57.92;97146.07;577182;243;66237;-69
2023/08/10 12:58:37;;;;;;;;;;;;;;;22.99;57.88;97141.50;578162;245;64914;-69
2023/08/10 13:01:04;;;;;;;;;;;;;;;22.99;57.90;97141.50;578203;245;65465;-70
2023/08/10 13:03:32;;;;;;;;;;;;;;;22.99;58.13;97144.19;578053;245;64854;-71
2023/08/10 13:06:00;;;;;;;;;;;;;;;22.98;58.05;97137.23;582435;242;64865;-69